sensor_id;sensor_type;location;lat;lon;timestamp;pressure;altitude;pressure_sealevel;temperature;humidity
69221;BME280;56331;51.992;20.910;2022-10-31T00:00:13;100561.86;;;22.14;44.14
69221;BME280;56331;51.992;20.910;2022-10-31T00:02:42;100560.22;;;22.13;44.11
69221;BME280;56331;51.992;20.910;2022-10-31T00:05:09;100564.97;;;22.12;44.14
69221;BME280;56331;51.992;20.910;2022-10-31T00:07:35;100566.35;;;22.12;44.07
69221;BME280;56331;51.992;20.910;2022-10-31T00:10:02;100571.32;;;22.13;44.04
69221;BME280;56331;51.992;20.910;2022-10-31T00:12:28;100569.93;;;22.13;43.99
69221;BME280;56331;51.992;20.910;2022-10-31T00:14:54;100566.13;;;22.11;43.95
69221;BME280;56331;51.992;20.910;2022-10-31T00:17:21;100567.73;;;22.12;43.96
69221;BME280;56331;51.992;20.910;2022-10-31T00:19:47;100567.52;;;22.11;44.00
69221;BME280;56331;51.992;20.910;2022-10-31T00:22:14;100567.52;;;22.11;43.93
69221;BME280;56331;51.992;20.910;2022-10-31T00:24:40;100569.13;;;22.12;43.91
69221;BME280;56331;51.992;20.910;2022-10-31T00:27:07;100564.16;;;22.12;43.92
69221;BME280;56331;51.992;20.910;2022-10-31T00:29:33;100568.06;;;22.11;43.93
69221;BME280;56331;51.992;20.910;2022-10-31T00:31:59;100563.35;;;22.11;43.92
69221;BME280;56331;51.992;20.910;2022-10-31T00:34:26;100561.38;;;22.12;43.89
69221;BME280;56331;51.992;20.910;2022-10-31T00:36:52;100562.52;;;22.11;43.87
69221;BME280;56331;51.992;20.910;2022-10-31T00:39:19;100560.58;;;22.11;43.85
69221;BME280;56331;51.992;20.910;2022-10-31T00:41:45;100566.13;;;22.11;43.80
69221;BME280;56331;51.992;20.910;2022-10-31T00:44:11;100563.09;;;22.10;43.82
69221;BME280;56331;51.992;20.910;2022-10-31T00:46:38;100563.91;;;22.11;43.79
69221;BME280;56331;51.992;20.910;2022-10-31T00:49:04;100565.87;;;22.10;43.81
69221;BME280;56331;51.992;20.910;2022-10-31T00:51:30;100563.09;;;22.10;43.81
69221;BME280;56331;51.992;20.910;2022-10-31T00:53:57;100558.13;;;22.10;43.83
69221;BME280;56331;51.992;20.910;2022-10-31T00:56:23;100561.70;;;22.10;43.82
69221;BME280;56331;51.992;20.910;2022-10-31T00:58:50;100565.87;;;22.10;43.75
69221;BME280;56331;51.992;20.910;2022-10-31T01:01:16;100564.84;;;22.09;43.76
69221;BME280;56331;51.992;20.910;2022-10-31T01:03:43;100567.26;;;22.10;43.73
69221;BME280;56331;51.992;20.910;2022-10-31T01:06:11;100565.39;;;22.08;43.68
69221;BME280;56331;51.992;20.910;2022-10-31T01:08:39;100567.61;;;22.09;43.67
69221;BME280;56331;51.992;20.910;2022-10-31T01:11:25;100565.39;;;22.08;43.64
69221;BME280;56331;51.992;20.910;2022-10-31T01:13:38;100566.77;;;22.08;43.64
69221;BME280;56331;51.992;20.910;2022-10-31T01:16:07;100563.20;;;22.07;43.69
69221;BME280;56331;51.992;20.910;2022-10-31T01:18:34;100565.97;;;22.07;43.68
69221;BME280;56331;51.992;20.910;2022-10-31T01:21:04;100558.00;;;22.06;43.65
69221;BME280;56331;51.992;20.910;2022-10-31T01:23:31;100562.97;;;22.06;43.68
69221;BME280;56331;51.992;20.910;2022-10-31T01:26:11;100562.39;;;22.07;43.64
69221;BME280;56331;51.992;20.910;2022-10-31T01:28:37;100564.36;;;22.06;43.61
69221;BME280;56331;51.992;20.910;2022-10-31T01:31:07;100566.55;;;22.07;43.58
69221;BME280;56331;51.992;20.910;2022-10-31T01:33:35;100562.74;;;22.05;43.55
69221;BME280;56331;51.992;20.910;2022-10-31T01:36:13;100563.55;;;22.06;43.58
69221;BME280;56331;51.992;20.910;2022-10-31T01:38:40;100567.45;;;22.05;43.59
69221;BME280;56331;51.992;20.910;2022-10-31T01:41:10;100561.36;;;22.05;43.61
69221;BME280;56331;51.992;20.910;2022-10-31T01:43:51;100564.12;;;22.05;43.58
69221;BME280;56331;51.992;20.910;2022-10-31T01:46:54;100558.33;;;22.04;43.54
69221;BME280;56331;51.992;20.910;2022-10-31T01:52:00;100570.00;;;22.04;43.53
69221;BME280;56331;51.992;20.910;2022-10-31T01:54:32;100577.74;;;22.04;43.52
69221;BME280;56331;51.992;20.910;2022-10-31T01:56:59;100577.74;;;22.04;43.52
69221;BME280;56331;51.992;20.910;2022-10-31T01:59:29;100574.74;;;22.03;43.51
69221;BME280;56331;51.992;20.910;2022-10-31T02:01:56;100580.88;;;22.03;43.51
69221;BME280;56331;51.992;20.910;2022-10-31T02:04:24;100581.68;;;22.03;43.51
69221;BME280;56331;51.992;20.910;2022-10-31T02:07:01;100581.42;;;22.02;43.52
69221;BME280;56331;51.992;20.910;2022-10-31T02:09:29;100580.88;;;22.03;43.50
69221;BME280;56331;51.992;20.910;2022-10-31T02:11:58;100580.62;;;22.02;43.47
69221;BME280;56331;51.992;20.910;2022-10-31T02:14:27;100579.23;;;22.02;43.44
69221;BME280;56331;51.992;20.910;2022-10-31T02:16:55;100575.06;;;22.02;43.42
69221;BME280;56331;51.992;20.910;2022-10-31T02:28:20;100575.65;;;22.01;43.31
69221;BME280;56331;51.992;20.910;2022-10-31T02:36:23;100575.97;;;22.00;43.32
69221;BME280;56331;51.992;20.910;2022-10-31T02:41:43;100572.39;;;21.99;43.27
69221;BME280;56331;51.992;20.910;2022-10-31T02:47:22;100574.59;;;22.00;43.29
69221;BME280;56331;51.992;20.910;2022-10-31T02:49:56;100577.72;;;21.98;43.26
69221;BME280;56331;51.992;20.910;2022-10-31T02:52:27;100579.91;;;21.99;43.23
69221;BME280;56331;51.992;20.910;2022-10-31T02:54:53;100577.72;;;21.98;43.26
69221;BME280;56331;51.992;20.910;2022-10-31T02:57:29;100584.07;;;21.99;43.22
69221;BME280;56331;51.992;20.910;2022-10-31T03:00:06;100582.69;;;21.99;43.17
69221;BME280;56331;51.992;20.910;2022-10-31T03:05:28;100582.69;;;21.99;42.75
69221;BME280;56331;51.992;20.910;2022-10-31T03:11:03;100591.81;;;21.99;42.22
69221;BME280;56331;51.992;20.910;2022-10-31T03:16:23;100600.13;;;21.99;41.93
69221;BME280;56331;51.992;20.910;2022-10-31T03:19:06;100605.10;;;22.00;41.92
69221;BME280;56331;51.992;20.910;2022-10-31T03:21:49;100599.55;;;22.00;41.94
69221;BME280;56331;51.992;20.910;2022-10-31T03:24:13;100605.68;;;21.99;41.74
69221;BME280;56331;51.992;20.910;2022-10-31T03:26:44;100609.27;;;22.00;41.62
69221;BME280;56331;51.992;20.910;2022-10-31T03:29:13;100610.09;;;22.00;41.71
69221;BME280;56331;51.992;20.910;2022-10-31T03:31:46;100612.88;;;22.00;41.59
69221;BME280;56331;51.992;20.910;2022-10-31T03:34:14;100617.58;;;22.00;41.47
69221;BME280;56331;51.992;20.910;2022-10-31T03:36:42;100615.88;;;22.01;41.39
69221;BME280;56331;51.992;20.910;2022-10-31T03:39:13;100623.97;;;22.00;41.38
69221;BME280;56331;51.992;20.910;2022-10-31T03:41:43;100623.97;;;22.00;41.25
69221;BME280;56331;51.992;20.910;2022-10-31T03:44:12;100623.39;;;22.01;41.15
69221;BME280;56331;51.992;20.910;2022-10-31T03:46:40;100620.61;;;22.01;41.17
69221;BME280;56331;51.992;20.910;2022-10-31T03:49:08;100627.06;;;21.99;40.99
69221;BME280;56331;51.992;20.910;2022-10-31T03:57:00;100625.68;;;21.99;40.61
69221;BME280;56331;51.992;20.910;2022-10-31T03:59:32;100627.06;;;21.99;40.45
69221;BME280;56331;51.992;20.910;2022-10-31T04:02:03;100626.48;;;21.99;40.36
69221;BME280;56331;51.992;20.910;2022-10-31T04:04:31;100624.30;;;21.99;40.52
69221;BME280;56331;51.992;20.910;2022-10-31T04:07:00;100624.88;;;21.98;40.80
69221;BME280;56331;51.992;20.910;2022-10-31T04:09:28;100624.06;;;21.98;40.92
69221;BME280;56331;51.992;20.910;2022-10-31T04:11:58;100621.29;;;21.98;41.00
69221;BME280;56331;51.992;20.910;2022-10-31T04:14:27;100624.61;;;21.97;41.14
69221;BME280;56331;51.992;20.910;2022-10-31T04:16:57;100629.36;;;21.97;41.21
69221;BME280;56331;51.992;20.910;2022-10-31T04:19:23;100623.58;;;21.96;41.23
69221;BME280;56331;51.992;20.910;2022-10-31T04:21:50;100613.87;;;21.96;41.29
69221;BME280;56331;51.992;20.910;2022-10-31T04:24:16;100616.64;;;21.96;41.34
69221;BME280;56331;51.992;20.910;2022-10-31T04:26:42;100616.16;;;21.94;41.33
69221;BME280;56331;51.992;20.910;2022-10-31T04:29:09;100614.19;;;21.94;41.36
69221;BME280;56331;51.992;20.910;2022-10-31T04:31:35;100614.19;;;21.94;41.41
69221;BME280;56331;51.992;20.910;2022-10-31T04:34:02;100611.42;;;21.94;41.39
69221;BME280;56331;51.992;20.910;2022-10-31T04:36:28;100616.16;;;21.94;41.48
69221;BME280;56331;51.992;20.910;2022-10-31T04:38:55;100616.16;;;21.94;41.45
69221;BME280;56331;51.992;20.910;2022-10-31T04:41:21;100621.70;;;21.94;41.51
69221;BME280;56331;51.992;20.910;2022-10-31T04:43:48;100615.36;;;21.93;41.49
69221;BME280;56331;51.992;20.910;2022-10-31T04:46:14;100618.12;;;21.93;41.52
69221;BME280;56331;51.992;20.910;2022-10-31T04:48:40;100623.09;;;21.94;41.55
69221;BME280;56331;51.992;20.910;2022-10-31T04:51:07;100623.42;;;21.92;41.57
69221;BME280;56331;51.992;20.910;2022-10-31T04:53:34;100623.67;;;21.93;41.57
69221;BME280;56331;51.992;20.910;2022-10-31T04:56:00;100630.61;;;21.93;41.61
69221;BME280;56331;51.992;20.910;2022-10-31T04:58:27;100638.13;;;21.93;41.58
69221;BME280;56331;51.992;20.910;2022-10-31T05:00:55;100638.13;;;21.93;41.65
69221;BME280;56331;51.992;20.910;2022-10-31T05:03:22;100633.70;;;21.92;41.63
69221;BME280;56331;51.992;20.910;2022-10-31T05:05:48;100638.13;;;21.93;41.66
69221;BME280;56331;51.992;20.910;2022-10-31T05:08:15;100641.45;;;21.92;41.66
69221;BME280;56331;51.992;20.910;2022-10-31T05:10:41;100637.28;;;21.92;41.65
69221;BME280;56331;51.992;20.910;2022-10-31T05:13:08;100641.22;;;21.91;41.70
69221;BME280;56331;51.992;20.910;2022-10-31T05:15:34;100644.57;;;21.91;41.71
69221;BME280;56331;51.992;20.910;2022-10-31T05:18:00;100647.58;;;21.92;41.70
69221;BME280;56331;51.992;20.910;2022-10-31T05:20:29;100644.57;;;21.91;41.73
69221;BME280;56331;51.992;20.910;2022-10-31T05:22:56;100642.92;;;21.90;41.72
69221;BME280;56331;51.992;20.910;2022-10-31T05:25:26;100646.54;;;21.90;41.74
69221;BME280;56331;51.992;20.910;2022-10-31T05:27:53;100646.54;;;21.90;41.79
69221;BME280;56331;51.992;20.910;2022-10-31T05:30:22;100645.16;;;21.90;41.80
69221;BME280;56331;51.992;20.910;2022-10-31T05:32:50;100649.86;;;21.90;41.78
69221;BME280;56331;51.992;20.910;2022-10-31T05:35:22;100647.92;;;21.90;41.79
69221;BME280;56331;51.992;20.910;2022-10-31T05:37:47;100646.86;;;21.89;41.84
69221;BME280;56331;51.992;20.910;2022-10-31T05:40:15;100652.98;;;21.88;41.87
69221;BME280;56331;51.992;20.910;2022-10-31T05:42:42;100651.02;;;21.89;41.84
69221;BME280;56331;51.992;20.910;2022-10-31T05:45:10;100651.83;;;21.89;41.88
69221;BME280;56331;51.992;20.910;2022-10-31T05:47:38;100654.37;;;21.88;41.87
69221;BME280;56331;51.992;20.910;2022-10-31T05:50:05;100650.21;;;21.88;41.87
69221;BME280;56331;51.992;20.910;2022-10-31T05:52:32;100652.98;;;21.88;41.91
69221;BME280;56331;51.992;20.910;2022-10-31T05:54:58;100657.73;;;21.88;41.88
69221;BME280;56331;51.992;20.910;2022-10-31T05:57:25;100655.76;;;21.88;41.91
69221;BME280;56331;51.992;20.910;2022-10-31T05:59:51;100654.95;;;21.88;41.95
69221;BME280;56331;51.992;20.910;2022-10-31T06:02:19;100657.14;;;21.88;41.93
69221;BME280;56331;51.992;20.910;2022-10-31T06:04:46;100653.56;;;21.88;41.99
69221;BME280;56331;51.992;20.910;2022-10-31T06:07:12;100659.66;;;21.87;41.98
69221;BME280;56331;51.992;20.910;2022-10-31T06:09:39;100660.50;;;21.88;42.01
69221;BME280;56331;51.992;20.910;2022-10-31T06:12:06;100661.05;;;21.87;42.00
69221;BME280;56331;51.992;20.910;2022-10-31T06:14:32;100667.44;;;21.88;42.02
69221;BME280;56331;51.992;20.910;2022-10-31T06:16:59;100667.44;;;21.88;42.02
69221;BME280;56331;51.992;20.910;2022-10-31T06:19:25;100672.72;;;21.87;42.01
69221;BME280;56331;51.992;20.910;2022-10-31T06:21:53;100679.08;;;21.87;42.07
69221;BME280;56331;51.992;20.910;2022-10-31T06:24:20;100675.50;;;21.87;42.06
69221;BME280;56331;51.992;20.910;2022-10-31T06:26:46;100673.53;;;21.87;42.09
69221;BME280;56331;51.992;20.910;2022-10-31T06:29:12;100685.20;;;21.87;42.08
69221;BME280;56331;51.992;20.910;2022-10-31T06:31:38;100676.66;;;21.85;42.13
69221;BME280;56331;51.992;20.910;2022-10-31T06:34:05;100677.69;;;21.87;42.12
69221;BME280;56331;51.992;20.910;2022-10-31T06:36:31;100681.04;;;21.87;42.13
69221;BME280;56331;51.992;20.910;2022-10-31T06:38:58;100681.04;;;21.87;42.15
69221;BME280;56331;51.992;20.910;2022-10-31T06:41:24;100675.27;;;21.85;42.15
69221;BME280;56331;51.992;20.910;2022-10-31T06:43:50;100678.63;;;21.85;42.19
69221;BME280;56331;51.992;20.910;2022-10-31T06:46:17;100676.66;;;21.85;42.20
69221;BME280;56331;51.992;20.910;2022-10-31T06:48:43;100672.23;;;21.84;42.19
69221;BME280;56331;51.992;20.910;2022-10-31T06:51:10;100666.69;;;21.84;42.24
69221;BME280;56331;51.992;20.910;2022-10-31T06:53:37;100673.39;;;21.83;42.25
69221;BME280;56331;51.992;20.910;2022-10-31T06:56:03;100675.01;;;21.84;42.29
69221;BME280;56331;51.992;20.910;2022-10-31T06:58:32;100679.42;;;21.85;42.28
69221;BME280;56331;51.992;20.910;2022-10-31T07:00:59;100681.71;;;21.83;42.30
69221;BME280;56331;51.992;20.910;2022-10-31T07:03:27;100687.27;;;21.83;42.34
69221;BME280;56331;51.992;20.910;2022-10-31T07:05:55;100678.63;;;21.85;42.31
69221;BME280;56331;51.992;20.910;2022-10-31T07:08:23;100681.39;;;21.85;42.33
69221;BME280;56331;51.992;20.910;2022-10-31T07:10:54;100681.71;;;21.83;42.38
69221;BME280;56331;51.992;20.910;2022-10-31T07:13:21;100680.01;;;21.85;42.35
69221;BME280;56331;51.992;20.910;2022-10-31T07:15:53;100683.91;;;21.84;42.40
69221;BME280;56331;51.992;20.910;2022-10-31T07:18:20;100678.94;;;21.83;42.42
69221;BME280;56331;51.992;20.910;2022-10-31T07:20:47;100690.03;;;21.83;42.44
69221;BME280;56331;51.992;20.910;2022-10-31T07:23:14;100688.65;;;21.83;42.49
69221;BME280;56331;51.992;20.910;2022-10-31T07:25:40;100682.30;;;21.83;42.49
69221;BME280;56331;51.992;20.910;2022-10-31T07:28:07;100690.61;;;21.83;42.49
69221;BME280;56331;51.992;20.910;2022-10-31T07:30:33;100692.31;;;21.81;42.57
69221;BME280;56331;51.992;20.910;2022-10-31T07:33:00;100690.35;;;21.82;42.58
69221;BME280;56331;51.992;20.910;2022-10-31T07:35:27;100690.35;;;21.82;42.65
69221;BME280;56331;51.992;20.910;2022-10-31T07:37:54;100691.73;;;21.82;42.64
69221;BME280;56331;51.992;20.910;2022-10-31T07:40:21;100697.55;;;21.83;42.69
69221;BME280;56331;51.992;20.910;2022-10-31T07:42:50;100690.35;;;21.82;42.72
69221;BME280;56331;51.992;20.910;2022-10-31T07:45:18;100697.86;;;21.81;42.76
69221;BME280;56331;51.992;20.910;2022-10-31T07:47:50;100693.70;;;21.81;42.76
69221;BME280;56331;51.992;20.910;2022-10-31T07:50:23;100697.86;;;21.81;42.81
69221;BME280;56331;51.992;20.910;2022-10-31T07:52:57;100696.25;;;21.80;42.82
69221;BME280;56331;51.992;20.910;2022-10-31T07:55:27;100703.67;;;21.82;42.85
69221;BME280;56331;51.992;20.910;2022-10-31T07:58:01;100694.60;;;21.79;42.91
69221;BME280;56331;51.992;20.910;2022-10-31T08:00:29;100694.86;;;21.80;42.93
69221;BME280;56331;51.992;20.910;2022-10-31T08:03:04;100695.19;;;21.79;42.96
69221;BME280;56331;51.992;20.910;2022-10-31T08:05:31;100691.83;;;21.79;43.00
69221;BME280;56331;51.992;20.910;2022-10-31T08:07:57;100691.83;;;21.79;43.05
69221;BME280;56331;51.992;20.910;2022-10-31T08:10:25;100697.38;;;21.79;43.07
69221;BME280;56331;51.992;20.910;2022-10-31T08:12:59;100706.53;;;21.80;43.11
69221;BME280;56331;51.992;20.910;2022-10-31T08:15:26;100706.53;;;21.80;43.13
69221;BME280;56331;51.992;20.910;2022-10-31T08:17:53;100703.50;;;21.79;43.17
69221;BME280;56331;51.992;20.910;2022-10-31T08:20:20;100705.70;;;21.79;43.21
69221;BME280;56331;51.992;20.910;2022-10-31T08:23:00;100706.27;;;21.79;43.26
69221;BME280;56331;51.992;20.910;2022-10-31T08:25:27;100703.50;;;21.79;43.24
69221;BME280;56331;51.992;20.910;2022-10-31T08:27:54;100703.50;;;21.79;43.27
69221;BME280;56331;51.992;20.910;2022-10-31T08:30:23;100708.47;;;21.79;43.29
69221;BME280;56331;51.992;20.910;2022-10-31T08:33:05;100710.44;;;21.79;43.32
69221;BME280;56331;51.992;20.910;2022-10-31T08:35:32;100709.05;;;21.79;43.40
69221;BME280;56331;51.992;20.910;2022-10-31T08:37:59;100711.82;;;21.79;43.44
69221;BME280;56331;51.992;20.910;2022-10-31T08:40:28;100711.82;;;21.79;43.47
69221;BME280;56331;51.992;20.910;2022-10-31T08:43:03;100709.05;;;21.79;43.49
69221;BME280;56331;51.992;20.910;2022-10-31T08:45:31;100713.20;;;21.79;43.53
69221;BME280;56331;51.992;20.910;2022-10-31T08:48:02;100718.75;;;21.79;43.56
69221;BME280;56331;51.992;20.910;2022-10-31T08:50:30;100724.87;;;21.78;43.63
69221;BME280;56331;51.992;20.910;2022-10-31T08:53:05;100726.03;;;21.77;43.65
69221;BME280;56331;51.992;20.910;2022-10-31T08:55:35;100729.62;;;21.78;43.72
69221;BME280;56331;51.992;20.910;2022-10-31T08:58:04;100731.81;;;21.78;43.72
69221;BME280;56331;51.992;20.910;2022-10-31T09:00:32;100733.78;;;21.78;43.79
69221;BME280;56331;51.992;20.910;2022-10-31T09:03:01;100736.78;;;21.79;43.84
69221;BME280;56331;51.992;20.910;2022-10-31T09:05:28;100736.55;;;21.78;43.86
69221;BME280;56331;51.992;20.910;2022-10-31T09:07:57;100731.00;;;21.78;43.86
69221;BME280;56331;51.992;20.910;2022-10-31T09:10:24;100733.20;;;21.78;43.91
69221;BME280;56331;51.992;20.910;2022-10-31T09:12:55;100731.81;;;21.78;43.97
69221;BME280;56331;51.992;20.910;2022-10-31T09:15:22;100731.23;;;21.79;43.98
69221;BME280;56331;51.992;20.910;2022-10-31T09:17:48;100728.81;;;21.77;44.01
69221;BME280;56331;51.992;20.910;2022-10-31T09:20:15;100731.23;;;21.79;44.08
69221;BME280;56331;51.992;20.910;2022-10-31T09:22:41;100731.23;;;21.79;44.08
69221;BME280;56331;51.992;20.910;2022-10-31T09:25:08;100726.84;;;21.78;44.12
69221;BME280;56331;51.992;20.910;2022-10-31T09:27:35;100734.59;;;21.78;44.18
69221;BME280;56331;51.992;20.910;2022-10-31T09:30:02;100733.20;;;21.78;44.21
69221;BME280;56331;51.992;20.910;2022-10-31T09:32:29;100731.58;;;21.77;44.28
69221;BME280;56331;51.992;20.910;2022-10-31T09:34:55;100732.97;;;21.77;44.34
69221;BME280;56331;51.992;20.910;2022-10-31T09:37:21;100730.77;;;21.77;44.35
69221;BME280;56331;51.992;20.910;2022-10-31T09:39:48;100728.81;;;21.77;44.41
69221;BME280;56331;51.992;20.910;2022-10-31T09:45:21;100733.55;;;21.77;44.45
69221;BME280;56331;51.992;20.910;2022-10-31T09:48:04;100732.97;;;21.77;44.48
69221;BME280;56331;51.992;20.910;2022-10-31T09:53:08;100738.83;;;21.76;44.66
69221;BME280;56331;51.992;20.910;2022-10-31T09:55:40;100734.09;;;21.76;44.67
69221;BME280;56331;51.992;20.910;2022-10-31T09:58:16;100742.19;;;21.75;44.70
69221;BME280;56331;51.992;20.910;2022-10-31T10:00:44;100735.25;;;21.75;44.74
69221;BME280;56331;51.992;20.910;2022-10-31T10:06:04;100734.09;;;21.76;44.81
69221;BME280;56331;51.992;20.910;2022-10-31T10:08:32;100732.48;;;21.75;44.87
69221;BME280;56331;51.992;20.910;2022-10-31T10:25:08;100732.25;;;21.74;45.08
69221;BME280;56331;51.992;20.910;2022-10-31T10:30:34;100728.09;;;21.74;45.16
69221;BME280;56331;51.992;20.910;2022-10-31T10:33:09;100731.98;;;21.73;45.18
69221;BME280;56331;51.992;20.910;2022-10-31T10:35:38;100732.80;;;21.74;45.23
69221;BME280;56331;51.992;20.910;2022-10-31T10:38:22;100731.98;;;21.73;45.29
69221;BME280;56331;51.992;20.910;2022-10-31T10:40:47;100736.15;;;21.73;45.33
69221;BME280;56331;51.992;20.910;2022-10-31T10:43:33;100727.25;;;21.74;45.35
69221;BME280;56331;51.992;20.910;2022-10-31T10:48:56;100733.38;;;21.73;45.36
69221;BME280;56331;51.992;20.910;2022-10-31T11:00:27;100730.86;;;21.74;45.51
69221;BME280;56331;51.992;20.910;2022-10-31T11:02:55;100719.52;;;21.73;45.52
69221;BME280;56331;51.992;20.910;2022-10-31T11:08:04;100725.05;;;21.73;45.57
69221;BME280;56331;51.992;20.910;2022-10-31T11:10:31;100727.25;;;21.74;45.65
69221;BME280;56331;51.992;20.910;2022-10-31T11:13:25;100721.16;;;21.74;45.64
69221;BME280;56331;51.992;20.910;2022-10-31T11:16:06;100722.28;;;21.73;45.68
69221;BME280;56331;51.992;20.910;2022-10-31T11:18:36;100721.70;;;21.74;45.70
69221;BME280;56331;51.992;20.910;2022-10-31T11:21:02;100714.55;;;21.73;45.75
69221;BME280;56331;51.992;20.910;2022-10-31T11:23:30;100707.93;;;21.71;45.80
69221;BME280;56331;51.992;20.910;2022-10-31T11:26:05;100710.96;;;21.72;45.80
69221;BME280;56331;51.992;20.910;2022-10-31T11:28:33;100713.39;;;21.74;45.77
69221;BME280;56331;51.992;20.910;2022-10-31T11:31:12;100705.64;;;21.73;45.77
69221;BME280;56331;51.992;20.910;2022-10-31T11:33:39;100705.64;;;21.73;45.80
69221;BME280;56331;51.992;20.910;2022-10-31T11:36:26;100705.06;;;21.74;45.83
69221;BME280;56331;51.992;20.910;2022-10-31T11:38:54;100709.23;;;21.74;45.84
69221;BME280;56331;51.992;20.910;2022-10-31T11:41:27;100714.77;;;21.74;45.89
69221;BME280;56331;51.992;20.910;2022-10-31T11:43:56;100711.19;;;21.73;45.95
69221;BME280;56331;51.992;20.910;2022-10-31T11:46:30;100710.06;;;21.74;45.94
69221;BME280;56331;51.992;20.910;2022-10-31T11:48:54;100721.80;;;21.71;45.99
69221;BME280;56331;51.992;20.910;2022-10-31T11:51:26;100720.67;;;21.72;46.02
69221;BME280;56331;51.992;20.910;2022-10-31T11:54:00;100722.86;;;21.73;46.02
69221;BME280;56331;51.992;20.910;2022-10-31T11:56:39;100722.38;;;21.71;46.10
69221;BME280;56331;51.992;20.910;2022-10-31T11:59:22;100716.25;;;21.71;46.08
69221;BME280;56331;51.992;20.910;2022-10-31T12:01:50;100711.55;;;21.72;46.11
69221;BME280;56331;51.992;20.910;2022-10-31T12:04:17;100712.93;;;21.72;46.11
69221;BME280;56331;51.992;20.910;2022-10-31T12:06:45;100708.19;;;21.72;46.17
69221;BME280;56331;51.992;20.910;2022-10-31T12:09:21;100716.51;;;21.72;46.16
69221;BME280;56331;51.992;20.910;2022-10-31T12:17:24;100711.19;;;21.73;46.17
69221;BME280;56331;51.992;20.910;2022-10-31T12:31:09;100708.19;;;21.72;46.34
69221;BME280;56331;51.992;20.910;2022-10-31T12:47:20;100701.84;;;21.72;46.51
69221;BME280;56331;51.992;20.910;2022-10-31T12:49:47;100705.16;;;21.71;46.48
69221;BME280;56331;51.992;20.910;2022-10-31T12:52:35;100709.66;;;21.70;46.52
69221;BME280;56331;51.992;20.910;2022-10-31T12:58:00;100712.34;;;21.72;46.56
69221;BME280;56331;51.992;20.910;2022-10-31T13:00:24;100710.16;;;21.72;46.55
69221;BME280;56331;51.992;20.910;2022-10-31T13:05:34;100712.67;;;21.71;46.61
69221;BME280;56331;51.992;20.910;2022-10-31T13:08:08;100706.55;;;21.71;46.58
69221;BME280;56331;51.992;20.910;2022-10-31T13:13:34;100703.22;;;21.72;46.57
69221;BME280;56331;51.992;20.910;2022-10-31T13:16:15;100701.00;;;21.71;46.59
69221;BME280;56331;51.992;20.910;2022-10-31T13:19:04;100705.16;;;21.71;46.58
69221;BME280;56331;51.992;20.910;2022-10-31T13:21:40;100706.80;;;21.72;46.63
69221;BME280;56331;51.992;20.910;2022-10-31T13:24:10;100704.03;;;21.72;46.63
69221;BME280;56331;51.992;20.910;2022-10-31T13:26:45;100701.84;;;21.72;46.63
69221;BME280;56331;51.992;20.910;2022-10-31T13:31:51;100702.97;;;21.71;46.67
69221;BME280;56331;51.992;20.910;2022-10-31T13:37:05;100705.16;;;21.71;46.71
69221;BME280;56331;51.992;20.910;2022-10-31T13:45:25;100702.97;;;21.71;46.73
69221;BME280;56331;51.992;20.910;2022-10-31T13:50:43;100712.93;;;21.72;46.75
69221;BME280;56331;51.992;20.910;2022-10-31T13:53:20;100706.55;;;21.71;46.80
69221;BME280;56331;51.992;20.910;2022-10-31T13:55:49;100706.31;;;21.70;46.80
69221;BME280;56331;51.992;20.910;2022-10-31T13:58:22;100707.70;;;21.70;46.82
69221;BME280;56331;51.992;20.910;2022-10-31T14:01:16;100708.51;;;21.71;46.83
69221;BME280;56331;51.992;20.910;2022-10-31T14:03:45;100698.00;;;21.70;46.83
69221;BME280;56331;51.992;20.910;2022-10-31T14:06:12;100708.28;;;21.70;46.83
69221;BME280;56331;51.992;20.910;2022-10-31T14:08:47;100705.25;;;21.69;46.88
69221;BME280;56331;51.992;20.910;2022-10-31T14:11:18;100704.70;;;21.69;46.89
69221;BME280;56331;51.992;20.910;2022-10-31T14:13:43;100705.16;;;21.71;46.85
69221;BME280;56331;51.992;20.910;2022-10-31T14:16:26;100703.62;;;21.68;46.95
69221;BME280;56331;51.992;20.910;2022-10-31T14:19:07;100699.16;;;21.69;46.90
69221;BME280;56331;51.992;20.910;2022-10-31T14:21:43;100702.16;;;21.70;46.91
69221;BME280;56331;51.992;20.910;2022-10-31T14:26:58;100698.00;;;21.70;46.92
69221;BME280;56331;51.992;20.910;2022-10-31T14:29:27;100698.23;;;21.71;46.92
69221;BME280;56331;51.992;20.910;2022-10-31T14:45:15;100688.61;;;21.69;47.36
69221;BME280;56331;51.992;20.910;2022-10-31T14:53:12;100681.13;;;21.69;47.48
69221;BME280;56331;51.992;20.910;2022-10-31T14:55:44;100682.83;;;21.68;47.50
69221;BME280;56331;51.992;20.910;2022-10-31T14:58:15;100683.64;;;21.68;47.55
69221;BME280;56331;51.992;20.910;2022-10-31T15:00:41;100680.87;;;21.68;47.55
69221;BME280;56331;51.992;20.910;2022-10-31T15:03:22;100684.22;;;21.68;47.63
69221;BME280;56331;51.992;20.910;2022-10-31T15:05:52;100679.84;;;21.67;47.66
69221;BME280;56331;51.992;20.910;2022-10-31T15:08:35;100680.06;;;21.68;47.70
69221;BME280;56331;51.992;20.910;2022-10-31T15:11:12;100682.83;;;21.68;47.76
69221;BME280;56331;51.992;20.910;2022-10-31T15:13:31;100680.87;;;21.68;47.80
69221;BME280;56331;51.992;20.910;2022-10-31T15:15:57;100685.61;;;21.68;47.89
69221;BME280;56331;51.992;20.910;2022-10-31T15:18:26;100690.00;;;21.69;47.85
69221;BME280;56331;51.992;20.910;2022-10-31T15:20:54;100686.41;;;21.68;47.87
69221;BME280;56331;51.992;20.910;2022-10-31T15:23:29;100678.09;;;21.68;47.88